sensor_id;sensor_type;location;lat;lon;timestamp;pressure;altitude;pressure_sealevel;temperature;humidity
56992;BME280;42885;49.754;18.636;2023-02-27T00:01:59;98647.14;;;3.72;100.00
56992;BME280;42885;49.754;18.636;2023-02-27T00:04:30;98648.50;;;3.85;100.00
56992;BME280;42885;49.754;18.636;2023-02-27T00:07:01;98655.70;;;3.57;100.00
56992;BME280;42885;49.754;18.636;2023-02-27T00:09:32;98648.59;;;3.82;100.00
56992;BME280;42885;49.754;18.636;2023-02-27T00:12:03;98656.82;;;3.65;100.00
56992;BME280;42885;49.754;18.636;2023-02-27T00:14:34;98654.75;;;3.62;100.00
56992;BME280;42885;49.754;18.636;2023-02-27T00:17:05;98653.73;;;3.67;100.00
56992;BME280;42885;49.754;18.636;2023-02-27T00:19:36;98656.62;;;3.55;100.00
56992;BME280;42885;49.754;18.636;2023-02-27T00:22:07;98656.44;;;3.28;100.00
56992;BME280;42885;49.754;18.636;2023-02-27T00:24:38;98653.13;;;3.39;100.00
56992;BME280;42885;49.754;18.636;2023-02-27T00:27:09;98648.09;;;3.51;100.00
56992;BME280;42885;49.754;18.636;2023-02-27T00:29:40;98648.58;;;3.49;100.00
56992;BME280;42885;49.754;18.636;2023-02-27T00:32:11;98646.91;;;3.47;100.00
56992;BME280;42885;49.754;18.636;2023-02-27T00:34:41;98646.50;;;3.64;100.00
56992;BME280;42885;49.754;18.636;2023-02-27T00:37:12;98651.20;;;3.48;100.00
56992;BME280;42885;49.754;18.636;2023-02-27T00:39:43;98645.88;;;3.54;100.00
56992;BME280;42885;49.754;18.636;2023-02-27T00:42:14;98652.94;;;3.65;100.00
56992;BME280;42885;49.754;18.636;2023-02-27T00:44:45;98656.05;;;3.78;100.00
56992;BME280;42885;49.754;18.636;2023-02-27T00:47:16;98659.27;;;3.53;100.00
56992;BME280;42885;49.754;18.636;2023-02-27T00:49:47;98660.63;;;3.50;100.00
56992;BME280;42885;49.754;18.636;2023-02-27T00:52:17;98658.47;;;3.15;100.00
56992;BME280;42885;49.754;18.636;2023-02-27T00:54:48;98662.64;;;3.39;100.00
56992;BME280;42885;49.754;18.636;2023-02-27T00:57:19;98665.35;;;3.34;100.00
56992;BME280;42885;49.754;18.636;2023-02-27T00:59:52;98661.75;;;3.40;100.00
56992;BME280;42885;49.754;18.636;2023-02-27T01:02:23;98664.94;;;3.15;100.00
56992;BME280;42885;49.754;18.636;2023-02-27T01:04:53;98668.41;;;3.14;100.00
56992;BME280;42885;49.754;18.636;2023-02-27T01:07:26;98668.19;;;3.23;100.00
56992;BME280;42885;49.754;18.636;2023-02-27T01:09:56;98674.03;;;3.32;100.00
56992;BME280;42885;49.754;18.636;2023-02-27T01:12:27;98675.61;;;3.37;100.00
56992;BME280;42885;49.754;18.636;2023-02-27T01:14:58;98674.69;;;3.40;100.00
56992;BME280;42885;49.754;18.636;2023-02-27T01:17:29;98673.22;;;3.29;100.00
56992;BME280;42885;49.754;18.636;2023-02-27T01:20:00;98677.02;;;3.33;100.00
56992;BME280;42885;49.754;18.636;2023-02-27T01:22:31;98678.19;;;3.19;100.00
56992;BME280;42885;49.754;18.636;2023-02-27T01:25:03;98676.81;;;3.24;100.00
56992;BME280;42885;49.754;18.636;2023-02-27T01:27:34;98683.46;;;3.34;100.00
56992;BME280;42885;49.754;18.636;2023-02-27T01:30:07;98677.42;;;3.34;100.00
56992;BME280;42885;49.754;18.636;2023-02-27T01:32:39;98686.99;;;3.30;100.00
56992;BME280;42885;49.754;18.636;2023-02-27T01:35:10;98684.71;;;3.70;100.00
56992;BME280;42885;49.754;18.636;2023-02-27T01:37:41;98696.13;;;3.27;100.00
56992;BME280;42885;49.754;18.636;2023-02-27T01:40:13;98692.85;;;3.20;100.00
56992;BME280;42885;49.754;18.636;2023-02-27T01:42:44;98689.78;;;3.02;100.00
56992;BME280;42885;49.754;18.636;2023-02-27T01:45:24;98692.69;;;3.08;100.00
56992;BME280;42885;49.754;18.636;2023-02-27T01:48:10;98692.74;;;3.05;100.00
56992;BME280;42885;49.754;18.636;2023-02-27T01:50:38;98692.36;;;3.02;100.00
56992;BME280;42885;49.754;18.636;2023-02-27T01:53:09;98692.28;;;2.87;100.00
56992;BME280;42885;49.754;18.636;2023-02-27T01:55:40;98700.42;;;2.70;100.00
56992;BME280;42885;49.754;18.636;2023-02-27T01:58:12;98702.52;;;2.72;100.00
56992;BME280;42885;49.754;18.636;2023-02-27T02:00:44;98705.77;;;2.82;100.00
56992;BME280;42885;49.754;18.636;2023-02-27T02:03:49;98713.95;;;2.82;100.00
56992;BME280;42885;49.754;18.636;2023-02-27T02:06:19;98710.27;;;2.92;100.00
56992;BME280;42885;49.754;18.636;2023-02-27T02:08:52;98705.28;;;2.84;100.00
56992;BME280;42885;49.754;18.636;2023-02-27T02:11:25;98702.83;;;2.78;100.00
56992;BME280;42885;49.754;18.636;2023-02-27T02:13:59;98705.80;;;2.81;100.00
56992;BME280;42885;49.754;18.636;2023-02-27T02:22:28;98709.99;;;2.65;100.00
56992;BME280;42885;49.754;18.636;2023-02-27T02:34:05;98709.52;;;2.46;97.83
56992;BME280;42885;49.754;18.636;2023-02-27T02:53:50;98717.15;;;2.52;89.16
56992;BME280;42885;49.754;18.636;2023-02-27T02:59:17;98716.94;;;2.63;88.06
56992;BME280;42885;49.754;18.636;2023-02-27T03:01:55;98718.67;;;2.61;89.10
56992;BME280;42885;49.754;18.636;2023-02-27T03:04:34;98716.88;;;2.43;88.86
56992;BME280;42885;49.754;18.636;2023-02-27T03:07:10;98720.16;;;2.52;88.82
56992;BME280;42885;49.754;18.636;2023-02-27T03:09:39;98722.82;;;2.48;88.04
56992;BME280;42885;49.754;18.636;2023-02-27T03:12:12;98715.66;;;2.40;88.56
56992;BME280;42885;49.754;18.636;2023-02-27T03:14:47;98728.40;;;2.27;89.33
56992;BME280;42885;49.754;18.636;2023-02-27T03:17:29;98724.29;;;2.82;88.76
56992;BME280;42885;49.754;18.636;2023-02-27T03:20:00;98727.70;;;2.41;87.94
56992;BME280;42885;49.754;18.636;2023-02-27T03:22:34;98729.39;;;2.42;86.99
56992;BME280;42885;49.754;18.636;2023-02-27T03:25:05;98734.45;;;2.48;85.86
56992;BME280;42885;49.754;18.636;2023-02-27T03:27:44;98738.11;;;2.81;85.96
56992;BME280;42885;49.754;18.636;2023-02-27T03:30:30;98740.97;;;2.23;85.46
56992;BME280;42885;49.754;18.636;2023-02-27T03:33:15;98742.00;;;2.37;83.48
56992;BME280;42885;49.754;18.636;2023-02-27T03:35:56;98743.77;;;2.34;82.90
56992;BME280;42885;49.754;18.636;2023-02-27T03:38:37;98748.61;;;2.29;82.28
56992;BME280;42885;49.754;18.636;2023-02-27T03:44:06;98751.20;;;2.03;82.16
56992;BME280;42885;49.754;18.636;2023-02-27T03:46:37;98760.60;;;2.09;80.71
56992;BME280;42885;49.754;18.636;2023-02-27T03:49:08;98759.67;;;2.11;79.21
56992;BME280;42885;49.754;18.636;2023-02-27T03:51:38;98765.91;;;2.24;79.66
56992;BME280;42885;49.754;18.636;2023-02-27T03:54:21;98764.25;;;2.19;78.59
56992;BME280;42885;49.754;18.636;2023-02-27T03:57:00;98768.30;;;2.10;78.68
56992;BME280;42885;49.754;18.636;2023-02-27T03:59:32;98765.83;;;2.28;78.64
56992;BME280;42885;49.754;18.636;2023-02-27T04:02:04;98761.27;;;2.18;77.77
56992;BME280;42885;49.754;18.636;2023-02-27T04:04:35;98768.64;;;1.90;79.43
56992;BME280;42885;49.754;18.636;2023-02-27T04:07:39;98770.81;;;1.89;78.47
56992;BME280;42885;49.754;18.636;2023-02-27T04:30:12;98787.02;;;1.99;75.68
56992;BME280;42885;49.754;18.636;2023-02-27T04:35:23;98787.89;;;1.98;74.64
56992;BME280;42885;49.754;18.636;2023-02-27T04:38:18;98786.03;;;2.06;74.14
56992;BME280;42885;49.754;18.636;2023-02-27T04:40:56;98789.02;;;2.07;74.44
56992;BME280;42885;49.754;18.636;2023-02-27T04:43:28;98792.95;;;2.04;75.33
56992;BME280;42885;49.754;18.636;2023-02-27T04:46:01;98788.05;;;1.88;75.23
56992;BME280;42885;49.754;18.636;2023-02-27T04:48:56;98787.75;;;2.05;74.95
56992;BME280;42885;49.754;18.636;2023-02-27T04:51:14;98787.16;;;2.15;74.27
56992;BME280;42885;49.754;18.636;2023-02-27T04:54:00;98787.78;;;2.28;74.07
56992;BME280;42885;49.754;18.636;2023-02-27T04:56:33;98794.97;;;2.35;74.56
56992;BME280;42885;49.754;18.636;2023-02-27T04:59:08;98796.61;;;2.41;74.51
56992;BME280;42885;49.754;18.636;2023-02-27T05:01:42;98798.67;;;2.44;74.51
56992;BME280;42885;49.754;18.636;2023-02-27T05:04:13;98802.77;;;2.78;74.89
56992;BME280;42885;49.754;18.636;2023-02-27T05:06:46;98804.73;;;2.87;75.05
56992;BME280;42885;49.754;18.636;2023-02-27T05:09:40;98805.71;;;2.36;75.72
56992;BME280;42885;49.754;18.636;2023-02-27T05:15:13;98803.34;;;2.48;75.87
56992;BME280;42885;49.754;18.636;2023-02-27T05:20:23;98810.66;;;2.48;74.59
56992;BME280;42885;49.754;18.636;2023-02-27T05:22:58;98813.09;;;2.56;74.75
56992;BME280;42885;49.754;18.636;2023-02-27T05:25:35;98821.06;;;2.45;76.12
56992;BME280;42885;49.754;18.636;2023-02-27T05:28:12;98817.43;;;3.00;75.88
56992;BME280;42885;49.754;18.636;2023-02-27T05:30:51;98820.95;;;2.73;75.95
56992;BME280;42885;49.754;18.636;2023-02-27T05:33:26;98818.83;;;2.50;77.37
56992;BME280;42885;49.754;18.636;2023-02-27T05:36:05;98822.88;;;2.40;79.58
56992;BME280;42885;49.754;18.636;2023-02-27T05:38:41;98822.88;;;2.40;79.58
56992;BME280;42885;49.754;18.636;2023-02-27T05:41:15;98822.09;;;2.35;82.37
56992;BME280;42885;49.754;18.636;2023-02-27T05:43:48;98823.58;;;2.48;82.37
56992;BME280;42885;49.754;18.636;2023-02-27T05:46:22;98836.41;;;2.53;81.81
56992;BME280;42885;49.754;18.636;2023-02-27T05:49:00;98833.95;;;2.70;81.42
56992;BME280;42885;49.754;18.636;2023-02-27T05:51:32;98829.57;;;2.96;82.13
56992;BME280;42885;49.754;18.636;2023-02-27T05:56:59;98846.28;;;2.55;84.67
56992;BME280;42885;49.754;18.636;2023-02-27T05:59:54;98846.66;;;2.58;86.17
56992;BME280;42885;49.754;18.636;2023-02-27T06:05:04;98849.72;;;2.56;89.57
56992;BME280;42885;49.754;18.636;2023-02-27T06:07:54;98851.83;;;2.58;89.20
56992;BME280;42885;49.754;18.636;2023-02-27T06:10:44;98860.50;;;2.31;91.01
56992;BME280;42885;49.754;18.636;2023-02-27T06:13:34;98862.02;;;2.43;92.28
56992;BME280;42885;49.754;18.636;2023-02-27T06:16:24;98860.98;;;2.52;91.56
56992;BME280;42885;49.754;18.636;2023-02-27T06:19:14;98859.33;;;2.49;91.45
56992;BME280;42885;49.754;18.636;2023-02-27T06:22:03;98855.53;;;2.67;91.78
56992;BME280;42885;49.754;18.636;2023-02-27T06:24:53;98865.83;;;2.70;91.82
56992;BME280;42885;49.754;18.636;2023-02-27T06:27:42;98867.47;;;2.74;92.00
56992;BME280;42885;49.754;18.636;2023-02-27T06:30:31;98865.06;;;2.88;91.68
56992;BME280;42885;49.754;18.636;2023-02-27T06:33:20;98870.23;;;2.88;92.22
56992;BME280;42885;49.754;18.636;2023-02-27T06:36:10;98867.48;;;2.73;93.13
56992;BME280;42885;49.754;18.636;2023-02-27T06:38:59;98868.17;;;2.83;92.65
56992;BME280;42885;49.754;18.636;2023-02-27T06:41:49;98867.83;;;2.79;92.40
56992;BME280;42885;49.754;18.636;2023-02-27T06:44:40;98870.31;;;2.60;94.05
56992;BME280;42885;49.754;18.636;2023-02-27T06:47:28;98873.12;;;2.95;92.86
56992;BME280;42885;49.754;18.636;2023-02-27T06:50:18;98877.26;;;3.02;92.44
56992;BME280;42885;49.754;18.636;2023-02-27T06:53:06;98875.72;;;2.94;92.13
56992;BME280;42885;49.754;18.636;2023-02-27T06:55:56;98878.11;;;3.05;90.72
56992;BME280;42885;49.754;18.636;2023-02-27T06:58:45;98880.37;;;2.99;91.65
56992;BME280;42885;49.754;18.636;2023-02-27T07:01:34;98884.81;;;3.13;90.04
56992;BME280;42885;49.754;18.636;2023-02-27T07:04:23;98885.91;;;3.23;89.49
56992;BME280;42885;49.754;18.636;2023-02-27T07:07:12;98888.67;;;3.15;89.01
56992;BME280;42885;49.754;18.636;2023-02-27T07:10:02;98891.16;;;3.20;89.13
56992;BME280;42885;49.754;18.636;2023-02-27T07:12:51;98890.25;;;3.22;88.73
56992;BME280;42885;49.754;18.636;2023-02-27T07:15:41;98896.08;;;3.53;87.18
56992;BME280;42885;49.754;18.636;2023-02-27T07:18:31;98896.28;;;3.64;86.00
56992;BME280;42885;49.754;18.636;2023-02-27T07:21:20;98892.12;;;3.56;85.79
56992;BME280;42885;49.754;18.636;2023-02-27T07:24:10;98898.51;;;3.40;86.67
56992;BME280;42885;49.754;18.636;2023-02-27T07:26:59;98906.08;;;3.07;88.78
56992;BME280;42885;49.754;18.636;2023-02-27T07:29:48;98914.44;;;3.20;89.29
56992;BME280;42885;49.754;18.636;2023-02-27T07:32:38;98913.24;;;3.15;89.70
56992;BME280;42885;49.754;18.636;2023-02-27T07:35:27;98907.56;;;3.19;90.09
56992;BME280;42885;49.754;18.636;2023-02-27T07:38:17;98914.22;;;3.09;89.81
56992;BME280;42885;49.754;18.636;2023-02-27T07:41:08;98909.66;;;3.22;90.26
56992;BME280;42885;49.754;18.636;2023-02-27T07:43:58;98914.73;;;3.04;89.54
56992;BME280;42885;49.754;18.636;2023-02-27T07:46:50;98921.38;;;2.95;88.38
56992;BME280;42885;49.754;18.636;2023-02-27T07:49:40;98920.19;;;3.13;88.14
56992;BME280;42885;49.754;18.636;2023-02-27T07:52:30;98924.97;;;3.10;87.94
56992;BME280;42885;49.754;18.636;2023-02-27T07:55:19;98926.28;;;3.09;87.51
56992;BME280;42885;49.754;18.636;2023-02-27T07:58:09;98927.88;;;3.37;85.39
56992;BME280;42885;49.754;18.636;2023-02-27T08:00:58;98937.27;;;2.99;86.98
56992;BME280;42885;49.754;18.636;2023-02-27T08:03:47;98940.87;;;3.13;86.50
56992;BME280;42885;49.754;18.636;2023-02-27T08:06:36;98945.39;;;3.24;87.07
56992;BME280;42885;49.754;18.636;2023-02-27T08:09:26;98952.97;;;3.34;87.11
56992;BME280;42885;49.754;18.636;2023-02-27T08:12:14;98956.46;;;3.31;86.99
56992;BME280;42885;49.754;18.636;2023-02-27T08:15:05;98957.91;;;3.46;88.63
56992;BME280;42885;49.754;18.636;2023-02-27T08:17:54;98963.22;;;3.60;89.05
56992;BME280;42885;49.754;18.636;2023-02-27T08:20:43;98964.76;;;3.70;89.39
56992;BME280;42885;49.754;18.636;2023-02-27T08:23:33;98964.73;;;3.91;88.19
56992;BME280;42885;49.754;18.636;2023-02-27T08:26:22;98970.22;;;3.97;90.98
56992;BME280;42885;49.754;18.636;2023-02-27T08:29:13;98965.47;;;3.96;90.49
56992;BME280;42885;49.754;18.636;2023-02-27T08:32:02;98967.69;;;4.13;90.11
56992;BME280;42885;49.754;18.636;2023-02-27T08:34:51;98961.23;;;4.12;88.00
56992;BME280;42885;49.754;18.636;2023-02-27T08:37:41;98968.58;;;4.12;84.34
56992;BME280;42885;49.754;18.636;2023-02-27T08:40:31;98966.94;;;4.28;84.29
56992;BME280;42885;49.754;18.636;2023-02-27T08:43:20;98972.66;;;4.23;81.12
56992;BME280;42885;49.754;18.636;2023-02-27T08:46:10;98972.08;;;4.48;79.92
56992;BME280;42885;49.754;18.636;2023-02-27T08:49:00;98975.05;;;4.50;76.97
56992;BME280;42885;49.754;18.636;2023-02-27T08:51:48;98965.27;;;4.78;76.82
56992;BME280;42885;49.754;18.636;2023-02-27T08:54:37;98972.01;;;5.02;75.73
56992;BME280;42885;49.754;18.636;2023-02-27T08:57:26;98972.31;;;4.57;71.34
56992;BME280;42885;49.754;18.636;2023-02-27T09:00:16;98970.44;;;4.96;68.82
56992;BME280;42885;49.754;18.636;2023-02-27T09:03:06;98972.25;;;4.93;68.48
56992;BME280;42885;49.754;18.636;2023-02-27T09:05:56;98974.63;;;5.01;66.68
56992;BME280;42885;49.754;18.636;2023-02-27T09:08:44;98980.84;;;5.12;65.94
56992;BME280;42885;49.754;18.636;2023-02-27T09:11:33;98976.18;;;5.08;63.76
56992;BME280;42885;49.754;18.636;2023-02-27T09:14:23;98977.81;;;4.95;62.70
56992;BME280;42885;49.754;18.636;2023-02-27T09:17:12;98980.72;;;5.00;60.11
56992;BME280;42885;49.754;18.636;2023-02-27T09:20:01;98987.14;;;5.03;57.67
56992;BME280;42885;49.754;18.636;2023-02-27T09:22:51;98981.58;;;5.17;57.17
56992;BME280;42885;49.754;18.636;2023-02-27T09:25:40;98980.59;;;5.04;56.26
56992;BME280;42885;49.754;18.636;2023-02-27T09:28:30;98985.47;;;5.00;55.62
56992;BME280;42885;49.754;18.636;2023-02-27T09:31:19;98986.13;;;4.74;56.52
56992;BME280;42885;49.754;18.636;2023-02-27T09:34:08;98995.87;;;4.99;54.60
56992;BME280;42885;49.754;18.636;2023-02-27T09:36:59;98994.40;;;5.23;54.35
56992;BME280;42885;49.754;18.636;2023-02-27T09:39:48;98995.08;;;5.13;54.67
56992;BME280;42885;49.754;18.636;2023-02-27T09:42:40;98992.97;;;5.28;52.29
56992;BME280;42885;49.754;18.636;2023-02-27T09:45:32;98996.23;;;5.66;52.76
56992;BME280;42885;49.754;18.636;2023-02-27T09:48:35;98996.39;;;5.60;51.46
56992;BME280;42885;49.754;18.636;2023-02-27T09:51:25;98996.75;;;6.09;51.44
56992;BME280;42885;49.754;18.636;2023-02-27T09:54:15;99002.89;;;5.60;50.74
56992;BME280;42885;49.754;18.636;2023-02-27T09:57:06;99001.75;;;5.70;50.80
56992;BME280;42885;49.754;18.636;2023-02-27T10:00:04;99003.05;;;5.70;47.46
56992;BME280;42885;49.754;18.636;2023-02-27T10:03:09;98999.03;;;5.27;48.13
56992;BME280;42885;49.754;18.636;2023-02-27T10:09:04;99000.33;;;5.27;47.69
56992;BME280;42885;49.754;18.636;2023-02-27T10:12:37;99000.53;;;4.86;47.92
56992;BME280;42885;49.754;18.636;2023-02-27T10:18:03;99004.45;;;5.50;48.15
56992;BME280;42885;49.754;18.636;2023-02-27T10:24:03;99001.62;;;5.75;47.54
56992;BME280;42885;49.754;18.636;2023-02-27T10:26:52;98997.94;;;6.27;47.26
56992;BME280;42885;49.754;18.636;2023-02-27T10:29:42;98987.65;;;6.65;45.49
56992;BME280;42885;49.754;18.636;2023-02-27T10:32:32;98997.75;;;6.47;46.70
56992;BME280;42885;49.754;18.636;2023-02-27T10:41:15;98988.45;;;6.53;46.64
56992;BME280;42885;49.754;18.636;2023-02-27T10:44:05;99008.48;;;6.08;46.75
56992;BME280;42885;49.754;18.636;2023-02-27T10:46:56;99006.80;;;5.90;46.83
56992;BME280;42885;49.754;18.636;2023-02-27T10:49:47;99001.29;;;5.07;47.90
56992;BME280;42885;49.754;18.636;2023-02-27T10:52:47;99005.73;;;5.35;48.00
56992;BME280;42885;49.754;18.636;2023-02-27T10:55:46;99012.17;;;5.54;48.56
56992;BME280;42885;49.754;18.636;2023-02-27T10:58:31;99008.55;;;4.76;49.14
56992;BME280;42885;49.754;18.636;2023-02-27T11:01:21;99012.05;;;4.92;50.48
56992;BME280;42885;49.754;18.636;2023-02-27T11:04:10;99017.22;;;4.75;50.74
56992;BME280;42885;49.754;18.636;2023-02-27T11:07:03;99024.19;;;4.35;52.67
56992;BME280;42885;49.754;18.636;2023-02-27T11:10:14;99024.41;;;5.48;51.89
56992;BME280;42885;49.754;18.636;2023-02-27T11:13:10;99024.20;;;5.73;51.34
56992;BME280;42885;49.754;18.636;2023-02-27T11:19:04;99005.83;;;7.42;50.33
56992;BME280;42885;49.754;18.636;2023-02-27T11:22:03;98997.48;;;9.25;46.20
56992;BME280;42885;49.754;18.636;2023-02-27T11:28:23;99015.23;;;6.42;51.83
56992;BME280;42885;49.754;18.636;2023-02-27T11:31:19;99018.98;;;6.04;53.27
56992;BME280;42885;49.754;18.636;2023-02-27T11:34:16;99026.86;;;5.70;55.86
56992;BME280;42885;49.754;18.636;2023-02-27T11:37:09;99030.28;;;5.55;56.82
56992;BME280;42885;49.754;18.636;2023-02-27T11:40:13;99030.75;;;5.70;58.53
56992;BME280;42885;49.754;18.636;2023-02-27T11:43:06;99032.73;;;5.28;61.76
56992;BME280;42885;49.754;18.636;2023-02-27T11:45:58;99036.28;;;5.74;62.54
56992;BME280;42885;49.754;18.636;2023-02-27T11:48:59;99032.16;;;5.67;63.51
56992;BME280;42885;49.754;18.636;2023-02-27T11:52:11;99033.25;;;5.58;64.35
56992;BME280;42885;49.754;18.636;2023-02-27T11:55:01;99035.30;;;5.30;67.59
56992;BME280;42885;49.754;18.636;2023-02-27T11:57:54;99030.27;;;7.52;63.87
56992;BME280;42885;49.754;18.636;2023-02-27T12:00:48;99026.48;;;8.31;58.79
56992;BME280;42885;49.754;18.636;2023-02-27T12:03:55;99018.79;;;7.32;59.69
56992;BME280;42885;49.754;18.636;2023-02-27T12:06:55;99023.97;;;6.26;62.38
56992;BME280;42885;49.754;18.636;2023-02-27T12:10:05;99031.19;;;5.86;66.50
56992;BME280;42885;49.754;18.636;2023-02-27T12:13:02;99030.64;;;6.06;68.31
56992;BME280;42885;49.754;18.636;2023-02-27T12:19:28;99044.33;;;4.62;79.74
56992;BME280;42885;49.754;18.636;2023-02-27T12:22:21;99040.48;;;5.13;82.35
56992;BME280;42885;49.754;18.636;2023-02-27T12:28:38;99039.84;;;4.87;82.60
56992;BME280;42885;49.754;18.636;2023-02-27T12:34:40;99040.75;;;5.84;73.94
56992;BME280;42885;49.754;18.636;2023-02-27T12:37:31;99041.31;;;5.95;69.78
56992;BME280;42885;49.754;18.636;2023-02-27T12:40:28;99044.11;;;5.24;69.87
56992;BME280;42885;49.754;18.636;2023-02-27T12:43:37;99042.17;;;4.98;72.43
56992;BME280;42885;49.754;18.636;2023-02-27T12:46:44;99042.03;;;5.04;70.40
56992;BME280;42885;49.754;18.636;2023-02-27T12:55:47;99048.19;;;5.33;68.12
56992;BME280;42885;49.754;18.636;2023-02-27T13:01:50;99032.37;;;10.12;51.22
56992;BME280;42885;49.754;18.636;2023-02-27T13:04:46;99032.37;;;10.12;51.22
56992;BME280;42885;49.754;18.636;2023-02-27T13:14:06;99028.36;;;9.46;50.35
56992;BME280;42885;49.754;18.636;2023-02-27T13:17:07;99029.56;;;11.35;43.56
56992;BME280;42885;49.754;18.636;2023-02-27T13:19:50;99014.34;;;12.88;39.87
56992;BME280;42885;49.754;18.636;2023-02-27T13:25:38;99032.20;;;8.40;45.51
56992;BME280;42885;49.754;18.636;2023-02-27T13:28:30;99043.92;;;6.94;47.62
56992;BME280;42885;49.754;18.636;2023-02-27T13:31:32;99043.89;;;6.69;49.35
56992;BME280;42885;49.754;18.636;2023-02-27T13:34:24;99040.37;;;6.97;47.84
56992;BME280;42885;49.754;18.636;2023-02-27T13:37:08;99042.69;;;10.15;41.86
56992;BME280;42885;49.754;18.636;2023-02-27T13:39:58;99039.55;;;8.07;44.39
56992;BME280;42885;49.754;18.636;2023-02-27T13:42:50;99038.33;;;7.81;45.05
56992;BME280;42885;49.754;18.636;2023-02-27T13:46:00;99041.75;;;7.58;44.10
56992;BME280;42885;49.754;18.636;2023-02-27T13:51:59;99038.90;;;7.78;43.42
56992;BME280;42885;49.754;18.636;2023-02-27T13:54:48;99042.02;;;6.86;44.56
56992;BME280;42885;49.754;18.636;2023-02-27T13:57:37;99038.82;;;7.91;42.98
56992;BME280;42885;49.754;18.636;2023-02-27T14:00:30;99038.82;;;7.91;42.98
56992;BME280;42885;49.754;18.636;2023-02-27T14:03:21;99033.14;;;9.26;40.15
56992;BME280;42885;49.754;18.636;2023-02-27T14:06:12;99042.58;;;10.08;39.85
56992;BME280;42885;49.754;18.636;2023-02-27T14:09:02;99048.34;;;10.72;41.21
56992;BME280;42885;49.754;18.636;2023-02-27T14:12:00;99058.43;;;7.40;49.68
56992;BME280;42885;49.754;18.636;2023-02-27T14:14:47;99063.87;;;6.53;55.27
56992;BME280;42885;49.754;18.636;2023-02-27T14:17:39;99066.95;;;6.08;58.85
56992;BME280;42885;49.754;18.636;2023-02-27T14:23:24;99063.86;;;5.30;63.89
56992;BME280;42885;49.754;18.636;2023-02-27T14:26:17;99066.59;;;5.07;62.27
56992;BME280;42885;49.754;18.636;2023-02-27T14:29:13;99066.00;;;4.77;64.07
56992;BME280;42885;49.754;18.636;2023-02-27T14:32:02;99072.98;;;4.55;64.82
56992;BME280;42885;49.754;18.636;2023-02-27T14:34:54;99074.84;;;4.68;64.48
56992;BME280;42885;49.754;18.636;2023-02-27T14:37:43;99074.70;;;4.75;64.40
56992;BME280;42885;49.754;18.636;2023-02-27T14:40:36;99078.78;;;4.47;64.54
56992;BME280;42885;49.754;18.636;2023-02-27T14:43:48;99075.76;;;4.48;63.39
56992;BME280;42885;49.754;18.636;2023-02-27T14:46:39;99083.12;;;4.47;64.47
56992;BME280;42885;49.754;18.636;2023-02-27T14:49:31;99080.98;;;4.66;63.33
56992;BME280;42885;49.754;18.636;2023-02-27T14:52:23;99085.24;;;4.29;63.82
56992;BME280;42885;49.754;18.636;2023-02-27T14:55:25;99087.88;;;4.26;62.73
56992;BME280;42885;49.754;18.636;2023-02-27T14:58:18;99086.66;;;4.23;63.40
56992;BME280;42885;49.754;18.636;2023-02-27T15:01:09;99089.73;;;4.21;62.55
56992;BME280;42885;49.754;18.636;2023-02-27T15:03:59;99092.07;;;4.53;60.28
56992;BME280;42885;49.754;18.636;2023-02-27T15:06:51;99096.55;;;4.25;61.13
56992;BME280;42885;49.754;18.636;2023-02-27T15:09:41;99094.70;;;4.32;60.44
56992;BME280;42885;49.754;18.636;2023-02-27T15:12:36;99096.95;;;4.05;63.20
56992;BME280;42885;49.754;18.636;2023-02-27T15:15:26;99101.61;;;4.10;62.70
56992;BME280;42885;49.754;18.636;2023-02-27T15:18:15;99105.30;;;4.19;62.37
56992;BME280;42885;49.754;18.636;2023-02-27T15:21:11;99100.51;;;4.41;61.86
56992;BME280;42885;49.754;18.636;2023-02-27T15:23:58;99103.17;;;4.58;60.13
56992;BME280;42885;49.754;18.636;2023-02-27T15:26:51;99101.06;;;4.56;59.91
56992;BME280;42885;49.754;18.636;2023-02-27T15:29:52;99106.26;;;4.36;60.01
56992;BME280;42885;49.754;18.636;2023-02-27T15:32:39;99097.15;;;4.76;59.62
56992;BME280;42885;49.754;18.636;2023-02-27T15:35:32;99107.13;;;4.75;59.07
56992;BME280;42885;49.754;18.636;2023-02-27T15:38:28;99109.14;;;4.62;59.17
56992;BME280;42885;49.754;18.636;2023-02-27T15:41:18;99111.94;;;4.52;59.81
56992;BME280;42885;49.754;18.636;2023-02-27T15:44:09;99110.43;;;5.00;63.06
56992;BME280;42885;49.754;18.636;2023-02-27T15:46:59;99122.61;;;4.58;60.45
56992;BME280;42885;49.754;18.636;2023-02-27T15:49:52;99129.58;;;4.56;60.68
56992;BME280;42885;49.754;18.636;2023-02-27T15:52:50;99130.90;;;4.35;60.93
56992;BME280;42885;49.754;18.636;2023-02-27T15:55:49;99134.08;;;4.48;60.81
56992;BME280;42885;49.754;18.636;2023-02-27T15:58:35;99132.01;;;4.23;61.38
56992;BME280;42885;49.754;18.636;2023-02-27T16:01:26;99142.75;;;4.04;62.28
56992;BME280;42885;49.754;18.636;2023-02-27T16:04:24;99140.48;;;3.85;63.44
56992;BME280;42885;49.754;18.636;2023-02-27T16:07:19;99145.20;;;4.10;62.72
56992;BME280;42885;49.754;18.636;2023-02-27T16:10:45;99147.27;;;3.93;61.51
56992;BME280;42885;49.754;18.636;2023-02-27T16:13:30;99142.45;;;3.72;61.95
56992;BME280;42885;49.754;18.636;2023-02-27T16:16:25;99148.30;;;3.60;62.47
56992;BME280;42885;49.754;18.636;2023-02-27T16:19:26;99151.98;;;3.72;62.65
56992;BME280;42885;49.754;18.636;2023-02-27T16:22:19;99149.81;;;3.71;62.95
56992;BME280;42885;49.754;18.636;2023-02-27T16:25:15;99153.19;;;3.77;63.58
56992;BME280;42885;49.754;18.636;2023-02-27T16:28:00;99162.11;;;3.60;63.83
56992;BME280;42885;49.754;18.636;2023-02-27T16:30:52;99162.86;;;3.41;63.23
56992;BME280;42885;49.754;18.636;2023-02-27T16:33:42;99168.25;;;3.28;63.49
56992;BME280;42885;49.754;18.636;2023-02-27T16:36:31;99175.16;;;3.26;62.98
56992;BME280;42885;49.754;18.636;2023-02-27T16:39:21;99187.89;;;3.13;62.89
56992;BME280;42885;49.754;18.636;2023-02-27T16:42:10;99181.54;;;3.33;62.71
56992;BME280;42885;49.754;18.636;2023-02-27T16:44:59;99183.85;;;3.24;62.06